sensor_id;sensor_type;location;lat;lon;timestamp;temperature;humidity
16846;DHT22;8539;53.188;8.696;2022-12-07T00:03:35;4.20;99.90
16846;DHT22;8539;53.188;8.696;2022-12-07T00:06:06;3.60;99.90
16846;DHT22;8539;53.188;8.696;2022-12-07T00:08:33;3.60;99.90
16846;DHT22;8539;53.188;8.696;2022-12-07T00:11:14;3.50;99.90
16846;DHT22;8539;53.188;8.696;2022-12-07T00:13:41;3.50;99.90
16846;DHT22;8539;53.188;8.696;2022-12-07T00:16:10;3.40;99.90
16846;DHT22;8539;53.188;8.696;2022-12-07T00:18:36;3.40;99.90
16846;DHT22;8539;53.188;8.696;2022-12-07T00:21:14;3.60;99.90
16846;DHT22;8539;53.188;8.696;2022-12-07T00:23:42;3.90;99.90
16846;DHT22;8539;53.188;8.696;2022-12-07T00:26:13;3.40;99.90
16846;DHT22;8539;53.188;8.696;2022-12-07T00:28:44;3.40;99.90
16846;DHT22;8539;53.188;8.696;2022-12-07T00:31:12;3.40;99.90
16846;DHT22;8539;53.188;8.696;2022-12-07T00:33:39;3.40;99.90
16846;DHT22;8539;53.188;8.696;2022-12-07T00:36:08;3.50;99.90
16846;DHT22;8539;53.188;8.696;2022-12-07T00:38:36;3.40;99.90
16846;DHT22;8539;53.188;8.696;2022-12-07T00:41:05;3.40;99.90
16846;DHT22;8539;53.188;8.696;2022-12-07T00:43:32;3.40;99.90
16846;DHT22;8539;53.188;8.696;2022-12-07T00:45:58;3.40;99.90
16846;DHT22;8539;53.188;8.696;2022-12-07T00:48:25;3.30;99.90
16846;DHT22;8539;53.188;8.696;2022-12-07T00:50:51;3.70;99.90
16846;DHT22;8539;53.188;8.696;2022-12-07T00:53:17;3.30;99.90
16846;DHT22;8539;53.188;8.696;2022-12-07T00:55:43;3.20;99.90
16846;DHT22;8539;53.188;8.696;2022-12-07T00:58:10;3.50;99.90
16846;DHT22;8539;53.188;8.696;2022-12-07T01:00:38;3.20;99.90
16846;DHT22;8539;53.188;8.696;2022-12-07T01:03:05;3.10;99.90
16846;DHT22;8539;53.188;8.696;2022-12-07T01:05:31;3.10;99.90
16846;DHT22;8539;53.188;8.696;2022-12-07T01:07:57;3.10;99.90
16846;DHT22;8539;53.188;8.696;2022-12-07T01:10:23;3.10;99.90
16846;DHT22;8539;53.188;8.696;2022-12-07T01:12:49;3.10;99.90
16846;DHT22;8539;53.188;8.696;2022-12-07T01:15:16;3.10;99.90
16846;DHT22;8539;53.188;8.696;2022-12-07T01:17:42;3.10;99.90
16846;DHT22;8539;53.188;8.696;2022-12-07T01:20:08;3.10;99.90
16846;DHT22;8539;53.188;8.696;2022-12-07T01:22:39;3.20;99.90
16846;DHT22;8539;53.188;8.696;2022-12-07T01:25:06;3.70;99.90
16846;DHT22;8539;53.188;8.696;2022-12-07T01:27:33;3.20;99.90
16846;DHT22;8539;53.188;8.696;2022-12-07T01:29:59;3.80;99.90
16846;DHT22;8539;53.188;8.696;2022-12-07T01:32:26;3.20;99.90
16846;DHT22;8539;53.188;8.696;2022-12-07T01:34:52;3.10;99.90
16846;DHT22;8539;53.188;8.696;2022-12-07T01:37:18;3.10;99.90
16846;DHT22;8539;53.188;8.696;2022-12-07T01:39:43;3.10;99.90
16846;DHT22;8539;53.188;8.696;2022-12-07T01:42:12;3.50;99.90
16846;DHT22;8539;53.188;8.696;2022-12-07T01:47:45;3.10;99.90
16846;DHT22;8539;53.188;8.696;2022-12-07T01:50:13;3.10;99.90
16846;DHT22;8539;53.188;8.696;2022-12-07T01:52:41;3.00;99.90
16846;DHT22;8539;53.188;8.696;2022-12-07T01:55:11;3.60;99.90
16846;DHT22;8539;53.188;8.696;2022-12-07T01:57:41;2.90;99.90
16846;DHT22;8539;53.188;8.696;2022-12-07T02:00:09;3.00;99.90
16846;DHT22;8539;53.188;8.696;2022-12-07T02:02:39;2.80;99.90
16846;DHT22;8539;53.188;8.696;2022-12-07T02:05:07;2.90;99.90
16846;DHT22;8539;53.188;8.696;2022-12-07T02:07:36;2.80;99.90
16846;DHT22;8539;53.188;8.696;2022-12-07T02:12:42;2.70;99.90
16846;DHT22;8539;53.188;8.696;2022-12-07T02:15:09;2.70;99.90
16846;DHT22;8539;53.188;8.696;2022-12-07T02:17:58;2.60;99.90
16846;DHT22;8539;53.188;8.696;2022-12-07T02:20:33;2.80;99.90
16846;DHT22;8539;53.188;8.696;2022-12-07T02:26:33;2.60;99.90
16846;DHT22;8539;53.188;8.696;2022-12-07T02:29:26;2.60;99.90
16846;DHT22;8539;53.188;8.696;2022-12-07T02:32:13;2.60;99.90
16846;DHT22;8539;53.188;8.696;2022-12-07T02:35:53;2.80;99.90
16846;DHT22;8539;53.188;8.696;2022-12-07T02:38:14;2.60;99.90
16846;DHT22;8539;53.188;8.696;2022-12-07T02:43:30;2.70;99.90
16846;DHT22;8539;53.188;8.696;2022-12-07T02:46:08;2.70;99.90
16846;DHT22;8539;53.188;8.696;2022-12-07T02:48:36;2.80;99.90
16846;DHT22;8539;53.188;8.696;2022-12-07T02:51:02;2.70;99.90
16846;DHT22;8539;53.188;8.696;2022-12-07T02:53:37;2.70;99.90
16846;DHT22;8539;53.188;8.696;2022-12-07T03:02:11;2.80;99.90
16846;DHT22;8539;53.188;8.696;2022-12-07T03:10:08;2.90;99.90
16846;DHT22;8539;53.188;8.696;2022-12-07T03:12:56;2.90;99.90
16846;DHT22;8539;53.188;8.696;2022-12-07T03:15:26;2.90;99.90
16846;DHT22;8539;53.188;8.696;2022-12-07T03:17:57;3.00;99.90
16846;DHT22;8539;53.188;8.696;2022-12-07T03:20:25;3.00;99.90
16846;DHT22;8539;53.188;8.696;2022-12-07T03:22:54;3.30;99.90
16846;DHT22;8539;53.188;8.696;2022-12-07T03:25:20;3.40;99.90
16846;DHT22;8539;53.188;8.696;2022-12-07T03:27:54;3.10;99.90
16846;DHT22;8539;53.188;8.696;2022-12-07T03:30:34;3.50;99.90
16846;DHT22;8539;53.188;8.696;2022-12-07T03:33:18;3.10;99.90
16846;DHT22;8539;53.188;8.696;2022-12-07T03:36:00;3.10;99.90
16846;DHT22;8539;53.188;8.696;2022-12-07T03:38:38;3.30;99.90
16846;DHT22;8539;53.188;8.696;2022-12-07T03:41:14;3.10;99.90
16846;DHT22;8539;53.188;8.696;2022-12-07T03:43:42;3.10;99.90
16846;DHT22;8539;53.188;8.696;2022-12-07T03:54:50;3.30;99.90
16846;DHT22;8539;53.188;8.696;2022-12-07T03:57:18;3.20;99.90
16846;DHT22;8539;53.188;8.696;2022-12-07T03:59:45;3.20;99.90
16846;DHT22;8539;53.188;8.696;2022-12-07T04:02:13;3.20;99.90
16846;DHT22;8539;53.188;8.696;2022-12-07T04:04:39;3.30;99.90
16846;DHT22;8539;53.188;8.696;2022-12-07T04:07:05;3.20;99.90
16846;DHT22;8539;53.188;8.696;2022-12-07T04:09:31;3.10;99.90
16846;DHT22;8539;53.188;8.696;2022-12-07T04:11:57;3.20;99.90
16846;DHT22;8539;53.188;8.696;2022-12-07T04:14:23;3.00;99.90
16846;DHT22;8539;53.188;8.696;2022-12-07T04:16:55;4.30;99.90
16846;DHT22;8539;53.188;8.696;2022-12-07T04:19:26;3.30;99.90
16846;DHT22;8539;53.188;8.696;2022-12-07T04:21:53;3.00;99.90
16846;DHT22;8539;53.188;8.696;2022-12-07T04:24:19;3.00;99.90
16846;DHT22;8539;53.188;8.696;2022-12-07T04:26:46;3.00;99.90
16846;DHT22;8539;53.188;8.696;2022-12-07T04:29:12;3.10;99.90
16846;DHT22;8539;53.188;8.696;2022-12-07T04:31:39;3.10;99.90
16846;DHT22;8539;53.188;8.696;2022-12-07T04:34:06;3.10;99.90
16846;DHT22;8539;53.188;8.696;2022-12-07T04:36:33;3.10;99.90
16846;DHT22;8539;53.188;8.696;2022-12-07T04:38:59;3.40;99.90
16846;DHT22;8539;53.188;8.696;2022-12-07T04:41:25;3.30;99.90
16846;DHT22;8539;53.188;8.696;2022-12-07T04:46:25;3.10;99.90
16846;DHT22;8539;53.188;8.696;2022-12-07T04:48:52;3.10;99.90
16846;DHT22;8539;53.188;8.696;2022-12-07T04:51:24;3.10;99.90
16846;DHT22;8539;53.188;8.696;2022-12-07T04:53:51;3.10;99.90
16846;DHT22;8539;53.188;8.696;2022-12-07T04:56:18;3.10;99.90
16846;DHT22;8539;53.188;8.696;2022-12-07T04:58:45;3.40;99.90
16846;DHT22;8539;53.188;8.696;2022-12-07T05:01:13;3.00;99.90
16846;DHT22;8539;53.188;8.696;2022-12-07T05:03:39;3.00;99.90
16846;DHT22;8539;53.188;8.696;2022-12-07T05:06:06;3.50;99.90
16846;DHT22;8539;53.188;8.696;2022-12-07T05:08:33;2.90;99.90
16846;DHT22;8539;53.188;8.696;2022-12-07T05:11:00;3.20;99.90
16846;DHT22;8539;53.188;8.696;2022-12-07T05:13:26;3.00;99.90
16846;DHT22;8539;53.188;8.696;2022-12-07T05:15:52;2.80;99.90
16846;DHT22;8539;53.188;8.696;2022-12-07T05:18:18;2.80;99.90
16846;DHT22;8539;53.188;8.696;2022-12-07T05:20:45;3.30;99.90
16846;DHT22;8539;53.188;8.696;2022-12-07T05:23:12;2.80;99.90
16846;DHT22;8539;53.188;8.696;2022-12-07T05:25:38;2.70;99.90
16846;DHT22;8539;53.188;8.696;2022-12-07T05:28:04;2.90;99.90
16846;DHT22;8539;53.188;8.696;2022-12-07T05:30:31;3.00;99.90
16846;DHT22;8539;53.188;8.696;2022-12-07T05:32:58;2.60;99.90
16846;DHT22;8539;53.188;8.696;2022-12-07T05:35:24;2.50;99.90
16846;DHT22;8539;53.188;8.696;2022-12-07T05:37:50;2.50;99.90
16846;DHT22;8539;53.188;8.696;2022-12-07T05:40:16;2.60;99.90
16846;DHT22;8539;53.188;8.696;2022-12-07T05:42:44;2.50;99.90
16846;DHT22;8539;53.188;8.696;2022-12-07T05:45:11;3.40;99.90
16846;DHT22;8539;53.188;8.696;2022-12-07T05:47:37;3.30;99.90
16846;DHT22;8539;53.188;8.696;2022-12-07T05:50:04;2.70;99.90
16846;DHT22;8539;53.188;8.696;2022-12-07T05:52:31;2.50;99.90
16846;DHT22;8539;53.188;8.696;2022-12-07T05:54:57;2.50;99.90
16846;DHT22;8539;53.188;8.696;2022-12-07T05:57:23;2.60;99.90
16846;DHT22;8539;53.188;8.696;2022-12-07T05:59:49;2.50;99.90
16846;DHT22;8539;53.188;8.696;2022-12-07T06:02:16;2.50;99.90
16846;DHT22;8539;53.188;8.696;2022-12-07T06:04:44;3.10;99.90
16846;DHT22;8539;53.188;8.696;2022-12-07T06:07:12;2.60;99.90
16846;DHT22;8539;53.188;8.696;2022-12-07T06:09:39;2.70;99.90
16846;DHT22;8539;53.188;8.696;2022-12-07T06:12:06;3.10;99.90
16846;DHT22;8539;53.188;8.696;2022-12-07T06:14:50;2.70;99.90
16846;DHT22;8539;53.188;8.696;2022-12-07T06:17:17;2.70;99.90
16846;DHT22;8539;53.188;8.696;2022-12-07T06:19:43;2.70;99.90
16846;DHT22;8539;53.188;8.696;2022-12-07T06:22:10;3.00;99.90
16846;DHT22;8539;53.188;8.696;2022-12-07T06:24:37;2.70;99.90
16846;DHT22;8539;53.188;8.696;2022-12-07T06:27:04;3.20;99.90
16846;DHT22;8539;53.188;8.696;2022-12-07T06:29:30;3.10;99.90
16846;DHT22;8539;53.188;8.696;2022-12-07T06:31:56;3.10;99.90
16846;DHT22;8539;53.188;8.696;2022-12-07T06:34:24;2.80;99.90
16846;DHT22;8539;53.188;8.696;2022-12-07T06:36:51;2.70;99.90
16846;DHT22;8539;53.188;8.696;2022-12-07T06:39:26;2.70;99.90
16846;DHT22;8539;53.188;8.696;2022-12-07T06:41:53;2.70;99.90
16846;DHT22;8539;53.188;8.696;2022-12-07T06:44:20;2.70;99.90
16846;DHT22;8539;53.188;8.696;2022-12-07T06:46:48;2.60;99.90
16846;DHT22;8539;53.188;8.696;2022-12-07T06:49:15;2.60;99.90
16846;DHT22;8539;53.188;8.696;2022-12-07T06:51:42;2.50;99.90
16846;DHT22;8539;53.188;8.696;2022-12-07T06:54:10;2.70;99.90
16846;DHT22;8539;53.188;8.696;2022-12-07T06:56:37;2.80;99.90
16846;DHT22;8539;53.188;8.696;2022-12-07T06:59:03;3.30;99.90
16846;DHT22;8539;53.188;8.696;2022-12-07T07:01:31;3.00;99.90
16846;DHT22;8539;53.188;8.696;2022-12-07T07:03:57;2.50;99.90
16846;DHT22;8539;53.188;8.696;2022-12-07T07:06:23;2.50;99.90
16846;DHT22;8539;53.188;8.696;2022-12-07T07:08:49;2.60;99.90
16846;DHT22;8539;53.188;8.696;2022-12-07T07:11:15;3.20;99.90
16846;DHT22;8539;53.188;8.696;2022-12-07T07:13:41;2.50;99.90
16846;DHT22;8539;53.188;8.696;2022-12-07T07:16:08;2.70;99.90
16846;DHT22;8539;53.188;8.696;2022-12-07T07:18:34;2.50;99.90
16846;DHT22;8539;53.188;8.696;2022-12-07T07:21:03;2.50;99.90
16846;DHT22;8539;53.188;8.696;2022-12-07T07:23:29;2.40;99.90
16846;DHT22;8539;53.188;8.696;2022-12-07T07:25:55;2.50;99.90
16846;DHT22;8539;53.188;8.696;2022-12-07T07:28:23;2.70;99.90
16846;DHT22;8539;53.188;8.696;2022-12-07T07:30:51;2.80;99.90
16846;DHT22;8539;53.188;8.696;2022-12-07T07:33:18;2.40;99.90
16846;DHT22;8539;53.188;8.696;2022-12-07T07:35:44;2.20;99.90
16846;DHT22;8539;53.188;8.696;2022-12-07T07:38:10;3.00;99.90
16846;DHT22;8539;53.188;8.696;2022-12-07T07:40:36;2.80;99.90
16846;DHT22;8539;53.188;8.696;2022-12-07T07:43:02;2.80;99.90
16846;DHT22;8539;53.188;8.696;2022-12-07T07:45:28;2.10;99.90
16846;DHT22;8539;53.188;8.696;2022-12-07T07:47:54;2.70;99.90
16846;DHT22;8539;53.188;8.696;2022-12-07T07:50:21;2.10;99.90
16846;DHT22;8539;53.188;8.696;2022-12-07T07:52:48;2.10;99.90
16846;DHT22;8539;53.188;8.696;2022-12-07T07:55:14;2.10;99.90
16846;DHT22;8539;53.188;8.696;2022-12-07T07:57:40;2.20;99.90
16846;DHT22;8539;53.188;8.696;2022-12-07T08:00:11;2.20;99.90
16846;DHT22;8539;53.188;8.696;2022-12-07T08:02:38;2.20;99.90
16846;DHT22;8539;53.188;8.696;2022-12-07T08:05:05;2.20;99.90
16846;DHT22;8539;53.188;8.696;2022-12-07T08:07:31;2.20;99.90
16846;DHT22;8539;53.188;8.696;2022-12-07T08:09:57;3.10;99.90
16846;DHT22;8539;53.188;8.696;2022-12-07T08:12:23;3.30;99.90
16846;DHT22;8539;53.188;8.696;2022-12-07T08:14:49;2.80;99.90
16846;DHT22;8539;53.188;8.696;2022-12-07T08:17:15;2.70;99.90
16846;DHT22;8539;53.188;8.696;2022-12-07T08:19:42;2.80;99.90
16846;DHT22;8539;53.188;8.696;2022-12-07T08:22:08;2.40;99.90
16846;DHT22;8539;53.188;8.696;2022-12-07T08:24:35;2.70;99.90
16846;DHT22;8539;53.188;8.696;2022-12-07T08:27:01;2.40;99.90
16846;DHT22;8539;53.188;8.696;2022-12-07T08:29:27;2.90;99.90
16846;DHT22;8539;53.188;8.696;2022-12-07T08:31:53;3.00;99.90
16846;DHT22;8539;53.188;8.696;2022-12-07T08:34:19;2.50;99.90
16846;DHT22;8539;53.188;8.696;2022-12-07T08:36:48;2.50;99.90
16846;DHT22;8539;53.188;8.696;2022-12-07T08:39:13;2.50;99.90
16846;DHT22;8539;53.188;8.696;2022-12-07T08:41:40;3.50;99.90
16846;DHT22;8539;53.188;8.696;2022-12-07T08:44:06;2.50;99.90
16846;DHT22;8539;53.188;8.696;2022-12-07T08:46:53;2.50;99.90
16846;DHT22;8539;53.188;8.696;2022-12-07T08:49:30;2.60;99.90
16846;DHT22;8539;53.188;8.696;2022-12-07T08:51:57;2.70;99.90
16846;DHT22;8539;53.188;8.696;2022-12-07T08:54:23;2.60;99.90
16846;DHT22;8539;53.188;8.696;2022-12-07T08:56:50;2.70;99.90
16846;DHT22;8539;53.188;8.696;2022-12-07T08:59:20;2.70;99.90
16846;DHT22;8539;53.188;8.696;2022-12-07T09:01:46;2.70;99.90
16846;DHT22;8539;53.188;8.696;2022-12-07T09:04:12;3.50;99.90
16846;DHT22;8539;53.188;8.696;2022-12-07T09:06:38;2.90;99.90
16846;DHT22;8539;53.188;8.696;2022-12-07T09:09:06;2.50;99.90
16846;DHT22;8539;53.188;8.696;2022-12-07T09:11:34;3.00;99.90
16846;DHT22;8539;53.188;8.696;2022-12-07T09:14:00;3.00;99.90
16846;DHT22;8539;53.188;8.696;2022-12-07T09:16:27;3.10;99.90
16846;DHT22;8539;53.188;8.696;2022-12-07T09:18:54;2.90;99.90
16846;DHT22;8539;53.188;8.696;2022-12-07T09:21:20;3.70;99.90
16846;DHT22;8539;53.188;8.696;2022-12-07T09:23:46;3.50;99.90
16846;DHT22;8539;53.188;8.696;2022-12-07T09:26:12;3.60;99.90
16846;DHT22;8539;53.188;8.696;2022-12-07T09:28:38;3.30;99.90
16846;DHT22;8539;53.188;8.696;2022-12-07T09:31:05;3.30;99.90
16846;DHT22;8539;53.188;8.696;2022-12-07T09:33:31;4.10;99.90
16846;DHT22;8539;53.188;8.696;2022-12-07T09:35:58;3.40;99.90
16846;DHT22;8539;53.188;8.696;2022-12-07T09:38:24;3.60;99.90
16846;DHT22;8539;53.188;8.696;2022-12-07T09:40:54;3.70;99.90
16846;DHT22;8539;53.188;8.696;2022-12-07T09:43:25;4.20;99.90
16846;DHT22;8539;53.188;8.696;2022-12-07T09:45:53;4.90;99.90
16846;DHT22;8539;53.188;8.696;2022-12-07T09:48:22;3.80;99.90
16846;DHT22;8539;53.188;8.696;2022-12-07T09:50:51;4.40;99.90
16846;DHT22;8539;53.188;8.696;2022-12-07T09:53:25;3.80;99.90
16846;DHT22;8539;53.188;8.696;2022-12-07T09:55:51;3.80;99.90
16846;DHT22;8539;53.188;8.696;2022-12-07T09:58:27;3.90;99.90
16846;DHT22;8539;53.188;8.696;2022-12-07T10:01:00;4.20;99.90
16846;DHT22;8539;53.188;8.696;2022-12-07T10:03:27;4.10;99.90
16846;DHT22;8539;53.188;8.696;2022-12-07T10:05:55;4.20;99.90
16846;DHT22;8539;53.188;8.696;2022-12-07T10:08:21;4.20;99.90
16846;DHT22;8539;53.188;8.696;2022-12-07T10:10:53;4.20;99.90
16846;DHT22;8539;53.188;8.696;2022-12-07T10:13:22;4.10;99.90
16846;DHT22;8539;53.188;8.696;2022-12-07T10:15:52;4.10;99.90
16846;DHT22;8539;53.188;8.696;2022-12-07T10:21:05;4.00;99.90
16846;DHT22;8539;53.188;8.696;2022-12-07T10:23:36;4.00;99.90
16846;DHT22;8539;53.188;8.696;2022-12-07T10:26:28;4.00;99.90
16846;DHT22;8539;53.188;8.696;2022-12-07T10:28:56;4.00;99.90
16846;DHT22;8539;53.188;8.696;2022-12-07T10:31:24;4.00;99.90
16846;DHT22;8539;53.188;8.696;2022-12-07T10:33:54;4.00;99.90
16846;DHT22;8539;53.188;8.696;2022-12-07T10:36:34;4.00;99.90
16846;DHT22;8539;53.188;8.696;2022-12-07T10:39:15;4.00;99.90
16846;DHT22;8539;53.188;8.696;2022-12-07T10:42:16;4.30;99.90
16846;DHT22;8539;53.188;8.696;2022-12-07T10:44:42;4.20;99.90
16846;DHT22;8539;53.188;8.696;2022-12-07T11:20:49;4.20;99.90
16846;DHT22;8539;53.188;8.696;2022-12-07T11:38:01;5.30;99.90
16846;DHT22;8539;53.188;8.696;2022-12-07T11:40:38;5.60;99.90
16846;DHT22;8539;53.188;8.696;2022-12-07T11:45:44;5.90;99.90
16846;DHT22;8539;53.188;8.696;2022-12-07T11:48:38;6.10;99.90
16846;DHT22;8539;53.188;8.696;2022-12-07T11:51:10;5.90;99.90
16846;DHT22;8539;53.188;8.696;2022-12-07T11:53:44;5.80;99.90
16846;DHT22;8539;53.188;8.696;2022-12-07T11:56:14;5.70;99.90
16846;DHT22;8539;53.188;8.696;2022-12-07T11:59:02;5.70;99.90
16846;DHT22;8539;53.188;8.696;2022-12-07T12:06:43;5.60;99.90
16846;DHT22;8539;53.188;8.696;2022-12-07T12:09:20;5.60;99.90
16846;DHT22;8539;53.188;8.696;2022-12-07T12:17:32;5.60;99.90
16846;DHT22;8539;53.188;8.696;2022-12-07T12:22:40;5.70;99.90
16846;DHT22;8539;53.188;8.696;2022-12-07T12:25:20;5.70;99.90
16846;DHT22;8539;53.188;8.696;2022-12-07T12:27:49;6.00;99.90
16846;DHT22;8539;53.188;8.696;2022-12-07T12:33:20;5.40;99.90
16846;DHT22;8539;53.188;8.696;2022-12-07T12:39:17;5.00;99.90
16846;DHT22;8539;53.188;8.696;2022-12-07T12:55:11;4.40;99.90
16846;DHT22;8539;53.188;8.696;2022-12-07T12:57:37;4.40;99.90
16846;DHT22;8539;53.188;8.696;2022-12-07T13:00:20;4.40;99.90
16846;DHT22;8539;53.188;8.696;2022-12-07T13:02:54;4.60;99.90
16846;DHT22;8539;53.188;8.696;2022-12-07T13:05:23;4.60;99.90
16846;DHT22;8539;53.188;8.696;2022-12-07T13:08:21;4.60;99.90
16846;DHT22;8539;53.188;8.696;2022-12-07T13:10:48;4.60;99.90
16846;DHT22;8539;53.188;8.696;2022-12-07T13:15:49;4.70;99.90
16846;DHT22;8539;53.188;8.696;2022-12-07T13:31:19;4.50;99.90
16846;DHT22;8539;53.188;8.696;2022-12-07T13:33:47;4.50;99.90
16846;DHT22;8539;53.188;8.696;2022-12-07T13:36:38;4.60;99.90
16846;DHT22;8539;53.188;8.696;2022-12-07T13:41:41;4.80;99.90
16846;DHT22;8539;53.188;8.696;2022-12-07T13:44:13;4.70;99.90
16846;DHT22;8539;53.188;8.696;2022-12-07T13:46:53;4.50;99.90
16846;DHT22;8539;53.188;8.696;2022-12-07T13:49:29;4.50;99.90
16846;DHT22;8539;53.188;8.696;2022-12-07T13:55:05;4.60;99.90
16846;DHT22;8539;53.188;8.696;2022-12-07T13:57:37;4.60;99.90
16846;DHT22;8539;53.188;8.696;2022-12-07T14:00:06;4.60;99.90
16846;DHT22;8539;53.188;8.696;2022-12-07T14:02:55;4.60;99.90
16846;DHT22;8539;53.188;8.696;2022-12-07T14:12:56;4.60;99.90
16846;DHT22;8539;53.188;8.696;2022-12-07T14:15:25;4.60;99.90
16846;DHT22;8539;53.188;8.696;2022-12-07T14:17:54;4.50;99.90
16846;DHT22;8539;53.188;8.696;2022-12-07T14:22:59;4.40;99.90
16846;DHT22;8539;53.188;8.696;2022-12-07T14:25:26;4.40;99.90
16846;DHT22;8539;53.188;8.696;2022-12-07T14:27:58;4.20;99.90
16846;DHT22;8539;53.188;8.696;2022-12-07T14:30:30;4.20;99.90
16846;DHT22;8539;53.188;8.696;2022-12-07T14:33:02;4.10;99.90
16846;DHT22;8539;53.188;8.696;2022-12-07T14:35:30;4.00;99.90
16846;DHT22;8539;53.188;8.696;2022-12-07T14:37:57;3.80;99.90
16846;DHT22;8539;53.188;8.696;2022-12-07T14:40:25;3.70;99.90
16846;DHT22;8539;53.188;8.696;2022-12-07T14:43:04;3.60;99.90
16846;DHT22;8539;53.188;8.696;2022-12-07T14:45:35;4.00;99.90
16846;DHT22;8539;53.188;8.696;2022-12-07T14:48:01;3.40;99.90
16846;DHT22;8539;53.188;8.696;2022-12-07T14:50:27;3.30;99.90
16846;DHT22;8539;53.188;8.696;2022-12-07T14:53:04;3.20;99.90
16846;DHT22;8539;53.188;8.696;2022-12-07T14:55:34;3.40;99.90
16846;DHT22;8539;53.188;8.696;2022-12-07T14:58:00;3.00;99.90
16846;DHT22;8539;53.188;8.696;2022-12-07T15:00:27;2.90;99.90
16846;DHT22;8539;53.188;8.696;2022-12-07T15:02:54;3.40;99.90
16846;DHT22;8539;53.188;8.696;2022-12-07T15:05:20;3.10;99.90
16846;DHT22;8539;53.188;8.696;2022-12-07T15:07:49;2.70;99.90
16846;DHT22;8539;53.188;8.696;2022-12-07T15:10:19;2.60;99.90
16846;DHT22;8539;53.188;8.696;2022-12-07T15:12:46;3.10;99.90
16846;DHT22;8539;53.188;8.696;2022-12-07T15:15:13;2.60;99.90
16846;DHT22;8539;53.188;8.696;2022-12-07T15:17:39;2.50;99.90
16846;DHT22;8539;53.188;8.696;2022-12-07T15:20:10;3.00;99.90
16846;DHT22;8539;53.188;8.696;2022-12-07T15:22:37;2.40;99.90
16846;DHT22;8539;53.188;8.696;2022-12-07T15:25:03;2.50;99.90
16846;DHT22;8539;53.188;8.696;2022-12-07T15:27:31;2.40;99.90
16846;DHT22;8539;53.188;8.696;2022-12-07T15:29:57;2.30;99.90
16846;DHT22;8539;53.188;8.696;2022-12-07T15:32:23;2.30;99.90
16846;DHT22;8539;53.188;8.696;2022-12-07T15:34:49;2.40;99.90
16846;DHT22;8539;53.188;8.696;2022-12-07T15:37:15;2.50;99.90
16846;DHT22;8539;53.188;8.696;2022-12-07T15:39:42;2.60;99.90
16846;DHT22;8539;53.188;8.696;2022-12-07T15:42:08;2.50;99.90
16846;DHT22;8539;53.188;8.696;2022-12-07T15:44:34;2.20;99.90
16846;DHT22;8539;53.188;8.696;2022-12-07T15:47:21;2.30;99.90
16846;DHT22;8539;53.188;8.696;2022-12-07T15:49:47;2.20;99.90
16846;DHT22;8539;53.188;8.696;2022-12-07T15:52:13;3.10;99.90
16846;DHT22;8539;53.188;8.696;2022-12-07T15:54:39;2.80;99.90
16846;DHT22;8539;53.188;8.696;2022-12-07T15:57:06;3.30;99.90
16846;DHT22;8539;53.188;8.696;2022-12-07T15:59:32;2.60;99.90
16846;DHT22;8539;53.188;8.696;2022-12-07T16:01:58;3.10;99.90
16846;DHT22;8539;53.188;8.696;2022-12-07T16:04:26;3.40;99.90
16846;DHT22;8539;53.188;8.696;2022-12-07T16:06:52;3.00;99.90
16846;DHT22;8539;53.188;8.696;2022-12-07T16:09:18;2.90;99.90
16846;DHT22;8539;53.188;8.696;2022-12-07T16:11:44;2.80;99.90
16846;DHT22;8539;53.188;8.696;2022-12-07T16:14:10;2.50;99.90
16846;DHT22;8539;53.188;8.696;2022-12-07T16:16:38;2.40;99.90
16846;DHT22;8539;53.188;8.696;2022-12-07T16:19:08;2.40;99.90
16846;DHT22;8539;53.188;8.696;2022-12-07T16:21:35;2.40;99.90
16846;DHT22;8539;53.188;8.696;2022-12-07T16:24:04;2.10;99.90
16846;DHT22;8539;53.188;8.696;2022-12-07T16:26:33;3.20;99.90
16846;DHT22;8539;53.188;8.696;2022-12-07T16:29:00;2.20;99.90
16846;DHT22;8539;53.188;8.696;2022-12-07T16:31:27;2.20;99.90
16846;DHT22;8539;53.188;8.696;2022-12-07T16:33:59;2.80;99.90
16846;DHT22;8539;53.188;8.696;2022-12-07T16:36:26;2.20;99.90
16846;DHT22;8539;53.188;8.696;2022-12-07T16:38:53;2.60;99.90
16846;DHT22;8539;53.188;8.696;2022-12-07T16:41:19;2.30;99.90
16846;DHT22;8539;53.188;8.696;2022-12-07T16:43:45;2.70;99.90
16846;DHT22;8539;53.188;8.696;2022-12-07T16:46:11;2.40;99.90
16846;DHT22;8539;53.188;8.696;2022-12-07T16:48:39;2.80;99.90
16846;DHT22;8539;53.188;8.696;2022-12-07T16:51:07;2.30;99.90
16846;DHT22;8539;53.188;8.696;2022-12-07T16:53:38;2.30;99.90
16846;DHT22;8539;53.188;8.696;2022-12-07T16:56:10;2.30;99.90
16846;DHT22;8539;53.188;8.696;2022-12-07T16:58:36;2.40;99.90
16846;DHT22;8539;53.188;8.696;2022-12-07T17:01:14;2.40;99.90
16846;DHT22;8539;53.188;8.696;2022-12-07T17:03:40;2.50;99.90
16846;DHT22;8539;53.188;8.696;2022-12-07T17:06:21;2.50;99.90
16846;DHT22;8539;53.188;8.696;2022-12-07T17:08:48;2.50;99.90
16846;DHT22;8539;53.188;8.696;2022-12-07T17:11:23;2.50;99.90
16846;DHT22;8539;53.188;8.696;2022-12-07T17:13:50;2.40;99.90
16846;DHT22;8539;53.188;8.696;2022-12-07T17:16:35;2.90;99.90
16846;DHT22;8539;53.188;8.696;2022-12-07T17:19:06;2.60;99.90
16846;DHT22;8539;53.188;8.696;2022-12-07T17:21:33;2.40;99.90
16846;DHT22;8539;53.188;8.696;2022-12-07T17:24:00;1.30;99.90
16846;DHT22;8539;53.188;8.696;2022-12-07T17:26:27;2.20;99.90
16846;DHT22;8539;53.188;8.696;2022-12-07T17:28:53;2.10;99.90
16846;DHT22;8539;53.188;8.696;2022-12-07T17:31:22;1.90;99.90
16846;DHT22;8539;53.188;8.696;2022-12-07T17:33:48;1.80;99.90
16846;DHT22;8539;53.188;8.696;2022-12-07T17:36:20;1.70;99.90
16846;DHT22;8539;53.188;8.696;2022-12-07T17:38:48;1.60;99.90
16846;DHT22;8539;53.188;8.696;2022-12-07T17:41:17;1.70;99.90
16846;DHT22;8539;53.188;8.696;2022-12-07T17:44:05;1.50;99.90
16846;DHT22;8539;53.188;8.696;2022-12-07T17:46:31;2.10;99.90
16846;DHT22;8539;53.188;8.696;2022-12-07T17:48:58;2.60;99.90
16846;DHT22;8539;53.188;8.696;2022-12-07T17:51:24;1.90;99.90
16846;DHT22;8539;53.188;8.696;2022-12-07T17:54:09;2.20;99.90
16846;DHT22;8539;53.188;8.696;2022-12-07T17:56:36;1.20;99.90
16846;DHT22;8539;53.188;8.696;2022-12-07T17:59:03;1.20;99.90
16846;DHT22;8539;53.188;8.696;2022-12-07T18:01:29;1.10;99.90
16846;DHT22;8539;53.188;8.696;2022-12-07T18:03:55;1.10;99.90
16846;DHT22;8539;53.188;8.696;2022-12-07T18:06:21;1.50;99.90
16846;DHT22;8539;53.188;8.696;2022-12-07T18:08:47;0.00;99.90
16846;DHT22;8539;53.188;8.696;2022-12-07T18:11:14;1.10;99.90
16846;DHT22;8539;53.188;8.696;2022-12-07T18:13:40;1.60;99.90
16846;DHT22;8539;53.188;8.696;2022-12-07T18:16:10;1.90;99.90
16846;DHT22;8539;53.188;8.696;2022-12-07T18:18:38;1.20;99.90
16846;DHT22;8539;53.188;8.696;2022-12-07T18:21:13;2.00;99.90
16846;DHT22;8539;53.188;8.696;2022-12-07T18:23:42;1.30;99.90
16846;DHT22;8539;53.188;8.696;2022-12-07T18:26:10;1.30;99.90
16846;DHT22;8539;53.188;8.696;2022-12-07T18:28:36;1.30;99.90
16846;DHT22;8539;53.188;8.696;2022-12-07T18:31:02;1.40;99.90
16846;DHT22;8539;53.188;8.696;2022-12-07T18:33:28;2.20;99.90
16846;DHT22;8539;53.188;8.696;2022-12-07T18:35:54;1.40;99.90
16846;DHT22;8539;53.188;8.696;2022-12-07T18:38:20;1.50;99.90
16846;DHT22;8539;53.188;8.696;2022-12-07T18:40:47;1.50;99.90
16846;DHT22;8539;53.188;8.696;2022-12-07T18:43:13;1.50;99.90
16846;DHT22;8539;53.188;8.696;2022-12-07T18:45:41;1.50;99.90
16846;DHT22;8539;53.188;8.696;2022-12-07T18:48:08;1.70;99.90
16846;DHT22;8539;53.188;8.696;2022-12-07T18:50:35;1.60;99.90